createdAt,value
2022-12-23T00:01:24.575Z,-0.81
2022-12-23T00:04:01.406Z,-0.99
2022-12-23T00:06:34.263Z,-1.08
2022-12-23T00:09:09.723Z,-0.98
2022-12-23T00:11:42.987Z,-0.93
2022-12-23T00:14:21.441Z,-1.14
2022-12-23T00:16:55.085Z,-1.13
2022-12-23T00:19:31.210Z,-1.31
2022-12-23T00:22:04.980Z,-1.18
2022-12-23T00:24:37.886Z,-1.21
2022-12-23T00:27:10.828Z,-1.24
2022-12-23T00:29:43.785Z,-1.20
2022-12-23T00:32:19.177Z,-1.23
2022-12-23T00:34:52.207Z,-1.09
2022-12-23T00:37:25.310Z,-1.07
2022-12-23T00:40:05.868Z,-0.64
2022-12-23T00:42:39.514Z,-1.07
2022-12-23T00:45:12.456Z,-1.16
2022-12-23T00:47:48.519Z,-1.25
2022-12-23T00:50:21.778Z,-1.13
2022-12-23T00:52:54.702Z,-1.13
2022-12-23T00:55:27.856Z,-1.18
2022-12-23T00:58:00.765Z,-1.04
2022-12-23T01:00:34.072Z,-1.07
2022-12-23T01:03:07.028Z,-1.11
2022-12-23T01:05:40.143Z,-1.19
2022-12-23T01:08:13.189Z,-1.21
2022-12-23T01:10:46.145Z,-1.07
2022-12-23T01:13:19.780Z,-1.32
2022-12-23T01:15:52.671Z,-1.29
2022-12-23T01:18:25.611Z,-1.09
2022-12-23T01:21:05.860Z,-1.05
2022-12-23T01:23:40.161Z,-1.17
2022-12-23T01:26:13.133Z,-1.17
2022-12-23T01:28:46.074Z,-1.07
2022-12-23T01:31:22.927Z,-1.14
2022-12-23T01:33:56.727Z,-1.20
2022-12-23T01:36:29.595Z,-1.25
2022-12-23T01:39:02.604Z,-1.03
2022-12-23T01:41:35.627Z,-1.11
2022-12-23T01:44:47.130Z,-1.04
2022-12-23T01:47:55.968Z,-1.12
2022-12-23T01:50:37.836Z,-1.03
2022-12-23T01:53:16.819Z,-1.17
2022-12-23T01:55:56.876Z,-1.25
2022-12-23T01:58:56.756Z,-1.32
2022-12-23T02:01:30.408Z,-1.32
2022-12-23T02:04:07.722Z,-1.20
2022-12-23T02:06:45.346Z,-1.25
2022-12-23T02:09:30.591Z,-1.08
2022-12-23T02:12:23.095Z,-1.10
2022-12-23T02:15:13.866Z,-1.37
2022-12-23T02:18:05.404Z,-1.25
2022-12-23T02:21:19.197Z,-1.16
2022-12-23T02:24:26.177Z,-1.15
2022-12-23T02:27:04.895Z,-1.04
2022-12-23T02:30:22.342Z,-1.01
2022-12-23T02:33:17.273Z,-1.01
2022-12-23T02:36:09.241Z,-1.00
2022-12-23T02:39:14.469Z,-1.24
2022-12-23T02:41:56.563Z,-1.02
2022-12-23T02:45:04.667Z,-0.94
2022-12-23T02:47:44.642Z,-1.01
2022-12-23T02:50:23.621Z,-1.01
2022-12-23T02:53:03.797Z,-1.14
2022-12-23T02:55:40.129Z,-1.06
2022-12-23T02:58:16.440Z,-1.32
2022-12-23T03:00:49.976Z,-1.17
2022-12-23T03:03:24.998Z,-1.04
2022-12-23T03:05:58.364Z,-0.98
2022-12-23T03:08:40.681Z,-1.02
2022-12-23T03:11:16.587Z,-0.97
2022-12-23T03:14:05.547Z,-0.97
2022-12-23T03:16:57.075Z,-1.01
2022-12-23T03:19:31.682Z,-0.95
2022-12-23T03:22:38.280Z,-0.86
2022-12-23T03:25:33.860Z,-0.86
2022-12-23T03:28:19.250Z,-0.87
2022-12-23T03:30:57.053Z,-0.84
2022-12-23T03:33:42.452Z,-0.74
2022-12-23T03:36:56.976Z,-0.68
2022-12-23T03:39:37.930Z,-0.43
2022-12-23T03:42:18.502Z,-0.62
2022-12-23T03:45:27.864Z,-0.88
2022-12-23T03:47:58.564Z,-0.82
2022-12-23T03:50:33.772Z,-0.75
2022-12-23T03:53:13.981Z,-0.61
2022-12-23T03:55:56.574Z,-0.91
2022-12-23T03:58:29.389Z,-0.83
2022-12-23T04:01:13.435Z,-0.60
2022-12-23T04:04:24.788Z,-0.73
2022-12-23T04:07:00.526Z,-0.69
2022-12-23T04:09:35.212Z,-0.36
2022-12-23T04:12:08.537Z,-0.57
2022-12-23T04:14:48.922Z,-0.83
2022-12-23T04:17:21.830Z,-0.68
2022-12-23T04:19:55.344Z,-0.44
2022-12-23T04:22:28.370Z,-0.53
2022-12-23T04:25:01.362Z,-0.55
2022-12-23T04:27:34.327Z,-0.52
2022-12-23T04:30:10.841Z,-0.58
2022-12-23T04:32:43.734Z,-0.70
2022-12-23T04:35:20.455Z,-0.68
2022-12-23T04:37:53.446Z,-0.77
2022-12-23T04:40:26.468Z,-0.70
2022-12-23T04:42:59.369Z,-0.85
2022-12-23T04:45:34.796Z,-0.78
2022-12-23T04:48:07.747Z,-0.76
2022-12-23T04:50:40.702Z,-0.70
2022-12-23T04:53:13.551Z,-0.59
2022-12-23T04:55:51.184Z,-0.61
2022-12-23T04:58:24.995Z,-0.44
2022-12-23T05:01:12.296Z,-0.43
2022-12-23T05:03:45.899Z,-0.53
2022-12-23T05:06:13.034Z,-0.59
2022-12-23T05:08:46.024Z,-0.71
2022-12-23T05:11:19.636Z,1.50
2022-12-23T05:13:53.078Z,6.25
2022-12-23T05:16:31.038Z,7.05
2022-12-23T05:19:04.771Z,7.50
2022-12-23T05:21:38.468Z,8.10
2022-12-23T05:24:11.935Z,7.53
2022-12-23T05:26:59.780Z,6.20
2022-12-23T05:29:33.828Z,4.25
2022-12-23T05:32:06.975Z,1.84
2022-12-23T05:34:41.181Z,1.35
2022-12-23T05:37:14.423Z,0.86
2022-12-23T05:39:48.333Z,0.44
2022-12-23T05:42:21.363Z,0.19
2022-12-23T05:44:54.910Z,-0.07
2022-12-23T05:47:28.162Z,-0.18
2022-12-23T05:50:01.455Z,-0.26
2022-12-23T05:52:34.320Z,-0.12
2022-12-23T05:55:09.050Z,-0.29
2022-12-23T05:57:42.147Z,-0.16
2022-12-23T06:00:15.262Z,-0.28
2022-12-23T06:02:53.630Z,-0.25
2022-12-23T06:05:31.131Z,-0.30
2022-12-23T06:08:04.765Z,-0.19
2022-12-23T06:10:38.365Z,0.05
2022-12-23T06:13:11.813Z,-0.03
2022-12-23T06:15:46.953Z,0.16
2022-12-23T06:18:20.951Z,-0.08
2022-12-23T06:20:54.792Z,-0.21
2022-12-23T06:23:37.453Z,-0.22
2022-12-23T06:26:14.103Z,-0.21
2022-12-23T06:28:46.881Z,-0.16
2022-12-23T06:31:19.834Z,-0.25
2022-12-23T06:33:52.825Z,-0.18
2022-12-23T06:36:25.754Z,-0.19
2022-12-23T06:38:58.692Z,-0.23
2022-12-23T06:41:32.019Z,-0.13
2022-12-23T06:44:05.419Z,0.06
2022-12-23T06:46:39.234Z,-0.05
2022-12-23T06:49:13.765Z,0.05
2022-12-23T06:51:47.087Z,-0.08
2022-12-23T06:54:23.106Z,-0.12
2022-12-23T06:56:56.403Z,-0.24
2022-12-23T06:59:29.261Z,-0.13
2022-12-23T07:02:03.325Z,0.18
2022-12-23T07:04:36.439Z,0.03
2022-12-23T07:07:09.575Z,0.14
2022-12-23T07:09:42.396Z,0.16
2022-12-23T07:12:15.582Z,0.17
2022-12-23T07:14:48.698Z,0.17
2022-12-23T07:17:22.163Z,0.13
2022-12-23T07:19:55.779Z,0.09
2022-12-23T07:22:31.099Z,0.24
2022-12-23T07:25:07.244Z,0.22
2022-12-23T07:27:40.529Z,0.23
2022-12-23T07:30:14.147Z,0.32
2022-12-23T07:32:53.164Z,0.18
2022-12-23T07:35:26.903Z,0.17
2022-12-23T07:38:00.032Z,0.26
2022-12-23T07:40:33.387Z,0.28
2022-12-23T07:43:06.573Z,0.38
2022-12-23T07:45:39.452Z,0.62
2022-12-23T07:48:12.563Z,0.99
2022-12-23T07:50:45.592Z,1.25
2022-12-23T07:53:18.696Z,1.47
2022-12-23T07:55:56.400Z,2.22
2022-12-23T07:58:30.860Z,2.77
2022-12-23T08:01:06.535Z,3.08
2022-12-23T08:03:40.525Z,2.88
2022-12-23T08:06:16.726Z,2.79
2022-12-23T08:08:51.742Z,3.16
2022-12-23T08:11:24.755Z,3.11
2022-12-23T08:14:01.345Z,3.00
2022-12-23T08:16:43.009Z,3.12
2022-12-23T08:19:17.698Z,4.16
2022-12-23T08:21:50.851Z,4.22
2022-12-23T08:24:24.259Z,4.19
2022-12-23T08:26:57.657Z,4.35
2022-12-23T08:29:36.023Z,4.81
2022-12-23T08:32:10.271Z,5.12
2022-12-23T08:34:43.571Z,5.75
2022-12-23T08:37:16.608Z,5.79
2022-12-23T08:39:50.081Z,5.93
2022-12-23T08:42:23.115Z,7.08
2022-12-23T08:44:56.327Z,5.83
2022-12-23T08:47:29.818Z,6.13
2022-12-23T08:50:03.205Z,6.90
2022-12-23T08:52:36.258Z,6.42
2022-12-23T08:55:10.519Z,6.01
2022-12-23T08:57:43.870Z,6.38
2022-12-23T09:00:21.592Z,7.01
2022-12-23T09:02:54.888Z,6.30
2022-12-23T09:05:28.383Z,6.30
2022-12-23T09:08:02.091Z,6.10
2022-12-23T09:10:40.548Z,6.10
2022-12-23T09:13:19.992Z,5.52
2022-12-23T09:15:58.293Z,5.14
2022-12-23T09:18:31.622Z,4.70
2022-12-23T09:21:07.430Z,4.38
2022-12-23T09:23:42.105Z,4.48
2022-12-23T09:26:24.755Z,4.73
2022-12-23T09:28:58.353Z,4.75
2022-12-23T09:31:36.689Z,5.14
2022-12-23T09:34:10.801Z,4.81
2022-12-23T09:36:43.797Z,4.82
2022-12-23T09:39:16.827Z,4.91
2022-12-23T09:41:49.797Z,5.15
2022-12-23T09:44:46.916Z,4.95
2022-12-23T09:47:23.980Z,4.94
2022-12-23T09:50:20.079Z,5.03
2022-12-23T09:53:04.079Z,5.12
2022-12-23T09:56:09.520Z,4.98
2022-12-23T09:59:04.803Z,5.10
2022-12-23T10:01:52.513Z,5.44
2022-12-23T10:05:01.726Z,5.61
2022-12-23T10:07:45.952Z,5.36
2022-12-23T10:10:48.257Z,5.42
2022-12-23T10:13:27.248Z,5.56
2022-12-23T10:16:06.994Z,5.52
2022-12-23T10:19:01.774Z,5.70
2022-12-23T10:21:34.819Z,5.64
2022-12-23T10:24:16.301Z,5.88
2022-12-23T10:26:54.689Z,5.96
2022-12-23T10:29:32.031Z,5.98
2022-12-23T10:32:31.449Z,6.13
2022-12-23T10:35:21.973Z,6.01
2022-12-23T10:38:12.247Z,5.99
2022-12-23T10:41:09.902Z,6.21
2022-12-23T10:44:02.114Z,6.00
2022-12-23T10:47:12.843Z,6.21
2022-12-23T10:50:07.351Z,6.31
2022-12-23T10:52:43.231Z,6.25
2022-12-23T10:55:32.877Z,6.42
2022-12-23T10:58:14.880Z,6.66
2022-12-23T11:01:03.815Z,6.75
2022-12-23T11:03:44.300Z,7.77
2022-12-23T11:06:23.702Z,9.98
2022-12-23T11:08:57.752Z,9.34
2022-12-23T11:11:57.156Z,8.53
2022-12-23T11:14:35.880Z,8.55
2022-12-23T11:17:25.515Z,8.24
2022-12-23T11:20:10.418Z,7.84
2022-12-23T11:22:52.085Z,7.92
2022-12-23T11:25:30.465Z,7.97
2022-12-23T11:28:17.363Z,7.96
2022-12-23T11:30:55.640Z,8.11
2022-12-23T11:33:31.985Z,7.91
2022-12-23T11:36:14.229Z,8.08
2022-12-23T11:38:54.185Z,8.09
2022-12-23T11:41:33.736Z,8.29
2022-12-23T11:44:14.590Z,8.61
2022-12-23T11:46:47.861Z,8.95
2022-12-23T11:49:23.661Z,8.63
2022-12-23T11:52:05.637Z,9.20
2022-12-23T11:54:38.854Z,8.99
2022-12-23T11:57:19.047Z,9.57
2022-12-23T11:59:59.354Z,9.77
2022-12-23T12:02:40.919Z,10.01
2022-12-23T12:05:41.125Z,10.57
2022-12-23T12:08:20.387Z,10.44
2022-12-23T12:10:59.618Z,11.09
2022-12-23T12:13:42.589Z,11.31
2022-12-23T12:16:31.006Z,10.88
2022-12-23T12:19:19.291Z,10.66
2022-12-23T12:21:59.151Z,10.39
2022-12-23T12:24:39.092Z,9.53
2022-12-23T12:27:12.287Z,9.10
2022-12-23T12:30:04.468Z,8.90
2022-12-23T12:33:11.794Z,8.54
2022-12-23T12:35:52.035Z,8.53
2022-12-23T12:38:31.836Z,8.59
2022-12-23T12:41:21.881Z,8.57
2022-12-23T12:44:21.777Z,8.52
2022-12-23T12:47:28.178Z,8.57
2022-12-23T12:50:06.592Z,8.59
2022-12-23T12:52:41.467Z,8.71
2022-12-23T12:55:27.949Z,8.87
2022-12-23T12:58:01.822Z,8.76
2022-12-23T13:00:48.987Z,8.86
2022-12-23T13:03:42.845Z,8.73
2022-12-23T13:06:40.634Z,8.84
2022-12-23T13:09:23.265Z,8.79
2022-12-23T13:12:07.482Z,8.86
2022-12-23T13:14:43.029Z,8.80
2022-12-23T13:17:22.254Z,8.75
2022-12-23T13:20:22.121Z,8.92
2022-12-23T13:23:34.287Z,8.92
2022-12-23T13:26:14.097Z,8.81
2022-12-23T13:29:16.628Z,8.99
2022-12-23T13:32:14.442Z,8.96
2022-12-23T13:35:15.410Z,9.99
2022-12-23T13:37:54.560Z,9.59
2022-12-23T13:40:53.158Z,9.40
2022-12-23T13:43:45.109Z,9.22
2022-12-23T13:46:43.709Z,10.45
2022-12-23T13:49:32.091Z,9.79
2022-12-23T13:52:28.280Z,9.33
2022-12-23T13:55:35.112Z,8.95
2022-12-23T13:58:19.938Z,8.78
2022-12-23T14:01:18.902Z,8.80
2022-12-23T14:03:52.190Z,10.77
2022-12-23T14:06:25.730Z,12.76
2022-12-23T14:08:59.418Z,13.37
2022-12-23T14:11:34.179Z,12.42
2022-12-23T14:14:20.079Z,10.82
2022-12-23T14:17:42.603Z,9.75
2022-12-23T14:20:44.435Z,9.20
2022-12-23T14:23:29.987Z,9.09
2022-12-23T14:26:26.215Z,9.62
2022-12-23T14:29:26.577Z,13.53
2022-12-23T14:31:59.659Z,11.09
2022-12-23T14:34:34.268Z,10.01
2022-12-23T14:37:22.684Z,9.37
2022-12-23T14:39:55.784Z,8.82
2022-12-23T14:42:43.105Z,8.64
2022-12-23T14:45:35.676Z,8.47
2022-12-23T14:48:33.761Z,8.26
2022-12-23T14:51:09.866Z,8.11
2022-12-23T14:53:52.163Z,8.14
2022-12-23T14:56:28.303Z,9.13
2022-12-23T14:59:13.242Z,8.38
2022-12-23T15:01:51.511Z,12.36
2022-12-23T15:04:28.718Z,10.57
2022-12-23T15:07:14.052Z,9.35
2022-12-23T15:09:58.687Z,8.75
2022-12-23T15:12:39.123Z,11.74
2022-12-23T15:15:22.932Z,10.33
2022-12-23T15:18:04.090Z,12.94
2022-12-23T15:20:37.784Z,14.09
2022-12-23T15:23:19.794Z,11.13
2022-12-23T15:25:56.859Z,10.04
2022-12-23T15:28:41.487Z,9.03
2022-12-23T15:31:38.253Z,8.52
2022-12-23T15:34:23.163Z,8.21
2022-12-23T15:36:56.700Z,7.98
2022-12-23T15:39:36.902Z,7.68
2022-12-23T15:42:26.560Z,9.63
2022-12-23T15:44:59.605Z,10.28
2022-12-23T15:47:42.624Z,8.75
2022-12-23T15:50:20.170Z,8.20
2022-12-23T15:52:55.696Z,7.95
2022-12-23T15:55:32.603Z,7.71
2022-12-23T15:58:05.693Z,7.41
2022-12-23T16:00:41.702Z,7.22
2022-12-23T16:03:26.399Z,7.12
2022-12-23T16:05:53.843Z,7.11
2022-12-23T16:08:30.217Z,6.96
2022-12-23T16:11:18.476Z,6.82
2022-12-23T16:14:01.956Z,6.77
2022-12-23T16:16:43.289Z,6.82
2022-12-23T16:19:36.762Z,6.76
2022-12-23T16:22:26.990Z,6.61
2022-12-23T16:25:16.650Z,6.65
2022-12-23T16:27:56.787Z,6.54
2022-12-23T16:30:37.192Z,6.41
2022-12-23T16:33:35.271Z,6.37
2022-12-23T16:36:25.937Z,6.32
2022-12-23T16:39:08.890Z,6.23
2022-12-23T16:41:41.897Z,6.18
2022-12-23T16:44:15.153Z,6.05
2022-12-23T16:46:50.888Z,6.01
2022-12-23T16:49:31.212Z,5.85
2022-12-23T16:52:06.611Z,5.87
2022-12-23T16:54:39.582Z,5.85
2022-12-23T16:57:12.835Z,5.83
2022-12-23T16:59:46.314Z,5.74
2022-12-23T17:02:23.569Z,5.80
2022-12-23T17:04:56.476Z,5.74
2022-12-23T17:07:29.359Z,5.62
2022-12-23T17:10:02.408Z,5.57
2022-12-23T17:12:35.372Z,5.45
2022-12-23T17:15:22.690Z,5.50
2022-12-23T17:17:55.909Z,5.44
2022-12-23T17:20:30.490Z,5.49
2022-12-23T17:23:24.376Z,5.58
2022-12-23T17:25:57.416Z,5.34
2022-12-23T17:28:32.770Z,5.13
2022-12-23T17:31:13.777Z,5.07
2022-12-23T17:33:47.857Z,4.98
2022-12-23T17:36:21.162Z,4.98
2022-12-23T17:38:54.608Z,4.85
2022-12-23T17:41:34.066Z,4.64
2022-12-23T17:44:07.450Z,4.63
2022-12-23T17:46:44.844Z,4.82
2022-12-23T17:49:17.936Z,4.74
2022-12-23T17:51:50.861Z,4.77
2022-12-23T17:54:24.816Z,4.73
2022-12-23T17:56:57.704Z,4.56
2022-12-23T17:59:30.851Z,4.87
2022-12-23T18:02:20.760Z,4.67
2022-12-23T18:04:54.281Z,4.66
2022-12-23T18:07:27.577Z,4.62
2022-12-23T18:10:00.412Z,4.66
2022-12-23T18:12:44.481Z,4.62
2022-12-23T18:15:26.669Z,4.49
2022-12-23T18:17:59.430Z,4.45
2022-12-23T18:20:32.591Z,4.63
2022-12-23T18:23:05.596Z,4.63
2022-12-23T18:25:38.693Z,4.68
2022-12-23T18:28:15.479Z,4.62
2022-12-23T18:30:48.617Z,4.62
2022-12-23T18:33:22.581Z,4.47
2022-12-23T18:35:50.550Z,4.49
2022-12-23T18:38:26.145Z,4.47
2022-12-23T18:41:01.780Z,4.54
2022-12-23T18:43:34.982Z,4.53
2022-12-23T18:46:08.552Z,7.32
2022-12-23T18:48:41.520Z,9.94
2022-12-23T18:51:16.529Z,8.72
2022-12-23T18:53:51.004Z,6.91
2022-12-23T18:56:24.028Z,6.97
2022-12-23T18:58:57.270Z,5.69
2022-12-23T19:01:30.364Z,4.92
2022-12-23T19:04:03.483Z,4.52
2022-12-23T19:06:39.987Z,4.22
2022-12-23T19:09:25.014Z,4.30
2022-12-23T19:11:57.920Z,4.29
2022-12-23T19:14:31.589Z,4.36
2022-12-23T19:17:04.892Z,4.16
2022-12-23T19:19:40.437Z,3.94
2022-12-23T19:22:16.128Z,3.86
2022-12-23T19:25:05.103Z,3.78
2022-12-23T19:27:40.527Z,3.67
2022-12-23T19:30:20.486Z,3.72
2022-12-23T19:32:53.709Z,3.76
2022-12-23T19:35:26.587Z,3.65
2022-12-23T19:38:03.120Z,3.74
2022-12-23T19:40:36.107Z,3.74
2022-12-23T19:43:11.469Z,3.82
2022-12-23T19:45:59.518Z,3.85
2022-12-23T19:48:33.476Z,3.95
2022-12-23T19:51:11.289Z,3.86
2022-12-23T19:53:45.341Z,3.84
2022-12-23T19:56:19.851Z,3.91
2022-12-23T19:58:58.702Z,3.78
2022-12-23T20:01:34.431Z,3.71
2022-12-23T20:04:07.389Z,3.77
2022-12-23T20:06:41.509Z,3.64
2022-12-23T20:09:14.448Z,3.55
2022-12-23T20:11:48.966Z,3.67
2022-12-23T20:14:22.674Z,3.42
2022-12-23T20:16:55.607Z,3.37
2022-12-23T20:19:28.852Z,3.24
2022-12-23T20:22:01.798Z,3.32
2022-12-23T20:24:34.763Z,3.39
2022-12-23T20:27:11.436Z,3.33
2022-12-23T20:29:45.867Z,3.37
2022-12-23T20:32:21.372Z,3.30
2022-12-23T20:34:54.556Z,3.19
2022-12-23T20:37:27.535Z,3.17
2022-12-23T20:40:00.518Z,3.22
2022-12-23T20:42:33.849Z,3.49
2022-12-23T20:45:07.548Z,3.33
2022-12-23T20:47:40.924Z,3.29
2022-12-23T20:50:13.814Z,3.15
2022-12-23T20:52:47.068Z,3.20
2022-12-23T20:55:20.335Z,3.72
2022-12-23T20:57:53.545Z,5.22
2022-12-23T21:00:26.948Z,4.36
2022-12-23T21:03:05.257Z,4.03
2022-12-23T21:05:41.512Z,3.77
2022-12-23T21:08:14.720Z,3.61
2022-12-23T21:10:53.253Z,3.47
2022-12-23T21:13:26.187Z,3.35
2022-12-23T21:16:04.007Z,3.27
2022-12-23T21:18:40.967Z,3.14
2022-12-23T21:21:13.869Z,2.94
2022-12-23T21:23:47.050Z,3.00
2022-12-23T21:26:25.109Z,2.97
2022-12-23T21:28:59.808Z,2.70
2022-12-23T21:31:35.615Z,2.76
2022-12-23T21:34:09.136Z,2.74
2022-12-23T21:36:42.568Z,2.41
2022-12-23T21:39:16.562Z,2.37
2022-12-23T21:41:49.549Z,2.64
2022-12-23T21:44:22.387Z,2.75
2022-12-23T21:46:56.084Z,2.70
2022-12-23T21:49:29.577Z,2.69
2022-12-23T21:52:02.363Z,2.77
2022-12-23T21:54:36.836Z,2.64
2022-12-23T21:57:16.542Z,2.62
2022-12-23T21:59:49.743Z,2.70
2022-12-23T22:02:22.685Z,2.76
2022-12-23T22:04:55.667Z,2.66
2022-12-23T22:07:28.729Z,2.62
2022-12-23T22:10:01.670Z,2.57
2022-12-23T22:12:34.582Z,2.55
2022-12-23T22:15:11.632Z,3.63
2022-12-23T22:17:57.315Z,2.96
2022-12-23T22:20:30.217Z,2.95
2022-12-23T22:23:03.543Z,2.75
2022-12-23T22:25:36.477Z,2.52
2022-12-23T22:28:09.406Z,2.36
2022-12-23T22:30:42.348Z,2.31
2022-12-23T22:33:15.275Z,2.19
2022-12-23T22:35:55.562Z,2.32
2022-12-23T22:38:28.996Z,2.10
2022-12-23T22:41:02.094Z,2.11
2022-12-23T22:43:35.403Z,2.40
2022-12-23T22:46:08.679Z,2.46
2022-12-23T22:48:42.143Z,2.42
2022-12-23T22:51:18.025Z,2.70
2022-12-23T22:53:51.571Z,2.68
2022-12-23T22:56:25.723Z,2.33
2022-12-23T22:58:58.740Z,2.51
2022-12-23T23:01:35.213Z,2.34
2022-12-23T23:04:10.296Z,2.53
2022-12-23T23:06:43.347Z,2.50
2022-12-23T23:09:19.578Z,2.41
2022-12-23T23:11:52.976Z,2.41
2022-12-23T23:14:25.914Z,2.42
2022-12-23T23:16:59.035Z,2.36
2022-12-23T23:19:32.393Z,2.28
2022-12-23T23:22:05.249Z,2.08
2022-12-23T23:24:38.594Z,2.25
2022-12-23T23:27:12.132Z,1.96
2022-12-23T23:29:45.032Z,2.03
2022-12-23T23:32:18.628Z,2.14
2022-12-23T23:34:52.176Z,2.18
2022-12-23T23:37:24.960Z,1.86
2022-12-23T23:39:57.939Z,1.99
2022-12-23T23:42:30.931Z,2.08
2022-12-23T23:45:04.357Z,2.49
2022-12-23T23:47:37.341Z,2.55
2022-12-23T23:50:10.464Z,2.42
2022-12-23T23:52:43.477Z,2.31
2022-12-23T23:55:16.607Z,2.13
2022-12-23T23:57:49.709Z,2.20
